Gwynn Oak, Maryland
Current Conditions -  °F | °C
As of 10:54 PM on Monday 22 Dec 2014 (Local Time) from KBWI Reporting Station
Haze Haze  
Wind Chill: 34°   Ceiling: 800
Heat Index: 40°   Visibility: 4mi
Dew Point: 37°   Wind: 8mph
Humidity: 89%   Direction: 50°NE
Pressure: 30.09"   Gusts: NA
Location:  39.32°N, 76.73°W
Report Text: KBWI 230354Z 05007KT 4SM BR OVC008 04/03 A3009 RMK AO2 SLP188 T00440028
Loading
Personal Weather Stations






























Interactive Weather Map New forecast layout! Learn more

10-Day Weather Forecast

Advertisements
Track Severe Weather on mobile